レシフェ の空港の天気 - METARとTAF

レシフェ・グアララペス国際空港 ( SBRF / REC ) - ブラジル ペルナンブーコ州レシフェ
飛行場実況気象(Metar)
観測時間01/21 15:00 BRT (01/21 18:00 UTC)
風向・風速南南東 5m/s
視程10km以上
天気現象
全天の4割程度の雲 雲底高度 700m
全天の4割程度の雲 雲底高度 1830m
気温29℃
湿度66%
気圧1011hPa
METARSBRF 211800Z 15010KT 9999 SCT023 SCT060 29/22 Q1011
過去の天気等 Google飛行場航空写真 Wunderground天気予報

過去48時間のMETAR

飛行場予報(TAF)
発表時間: 1/21 12:30 BRT (1/21 15:30 UTC)
予報対象時間: 21日15時 BRT ~ 22日15時 BRT
風向・風速南東 5m/s
視程8,000m
全天の4割程度の雲 雲底高度 610m
21日23時 BRT ~ 22日2時 BRT に 確率 30% で一時的に
視程6,000m
天気現象しゅう雨
全天の8割程度の雲 雲底高度 520m
TAF SBRF 211530Z 2118/2218 14010KT 8000 SCT020 TN25/2208Z TX30/2215Z
PROB30 TEMPO 2202/2205 6000 SHRA BKN017 RMK PCH